In Rescue
 
Open Full Screen Window  High Contrast Mode
Wind Gusting 00 knots
09
October 25, 2021 3:30 PM CDT
Weather Information
Wind Direction
  100 °
Wind Speed
  09 kt (10 mph)
Wind Gust
  00 kt (0 mph)
Altimeter
30.11 in
Visibility
10 SM
Temperature
12° C
54° F
Dewpoint
00° C
32° F
Humidity
44%
1hr Rain Fall
00.00 in.
24hr Rain Fall
00.00 in.
Sky Condition
Clear
VFR

METAR KGDB 252030Z AUTO 10009KT 10SM CLR 12/00 A3011 RMK AO2 T01231005

FAA Disclaimer: The data displayed is for advisory purposes only and is not to be used for flight planning or operations.